Time;durP1;ratioP1;P1;durP2;ratioP2;P2;SDS_P1;SDS_P2;PMS_P1;PMS_P2;Temp;Humidity;BMP_temperature;BMP_pressure;BME280_temperature;BME280_humidity;BME280_pressure;Samples;Min_cycle;Max_cycle;Signal;HPM_P1;HPM_P2
2023/03/31 00:00:10;;;;;;;10.43;2.85;;;;;;;12.84;70.92;100296.94;5068974;28;20028;-71
2023/03/31 00:02:41;;;;;;;11.35;2.83;;;;;;;12.84;70.37;100291.38;5065557;28;20036;-70
2023/03/31 00:05:08;;;;;;;7.30;2.83;;;;;;;12.81;70.86;100280.78;5069625;28;20032;-70
2023/03/31 00:07:36;;;;;;;10.30;3.25;;;;;;;12.78;70.92;100271.06;5089615;28;20044;-70
2023/03/31 00:10:03;;;;;;;7.45;2.60;;;;;;;12.72;71.99;100267.44;5090282;28;20024;-70
2023/03/31 00:12:28;;;;;;;8.60;2.72;;;;;;;12.76;71.19;100257.41;5074602;28;20064;-71
2023/03/31 00:14:55;;;;;;;7.53;2.35;;;;;;;12.79;71.46;100250.44;5050027;28;20132;-70
2023/03/31 00:17:20;;;;;;;5.72;2.17;;;;;;;12.76;71.56;100245.44;5049368;28;20489;-71
2023/03/31 00:19:48;;;;;;;5.82;2.15;;;;;;;12.70;71.38;100241.00;5059873;28;20044;-70
2023/03/31 00:22:20;;;;;;;9.85;2.47;;;;;;;12.59;71.95;100228.22;5052234;28;20094;-71
2023/03/31 00:24:46;;;;;;;5.90;2.47;;;;;;;12.65;71.94;100224.28;5059247;28;20028;-71
2023/03/31 00:27:12;;;;;;;8.75;2.58;;;;;;;12.60;71.89;100216.81;5067486;28;20081;-71
2023/03/31 00:29:40;;;;;;;7.72;2.67;;;;;;;12.58;72.60;100204.28;5067809;28;20036;-71
2023/03/31 00:32:06;;;;;;;5.95;2.45;;;;;;;12.51;72.29;100210.97;5067052;28;20104;-71
2023/03/31 00:34:33;;;;;;;9.38;2.45;;;;;;;12.48;72.77;100207.91;5071494;28;20032;-70
2023/03/31 00:37:01;;;;;;;8.45;2.08;;;;;;;12.42;72.67;100195.97;5074465;28;20048;-70
2023/03/31 00:39:30;;;;;;;5.82;2.53;;;;;;;12.48;72.81;100197.63;5067561;28;20028;-70
2023/03/31 00:41:57;;;;;;;10.52;2.47;;;;;;;12.51;72.74;100193.44;5069355;28;20090;-71
2023/03/31 00:44:24;;;;;;;8.82;2.20;;;;;;;12.50;72.56;100178.69;5068878;28;20121;-71
2023/03/31 00:47:01;;;;;;;7.90;2.47;;;;;;;12.45;72.98;100189.81;5058925;28;20416;-70
2023/03/31 00:49:42;;;;;;;10.90;2.30;;;;;;;12.49;72.65;100182.56;5049781;28;20040;-71
2023/03/31 00:52:17;;;;;;;7.45;2.40;;;;;;;12.51;72.55;100174.78;5065435;28;20041;-71
2023/03/31 00:54:46;;;;;;;6.07;2.17;;;;;;;12.49;72.76;100178.97;5066809;28;20517;-70
2023/03/31 00:57:13;;;;;;;7.40;2.30;;;;;;;12.50;72.37;100167.56;5068981;28;20074;-71
2023/03/31 00:59:44;;;;;;;8.43;2.50;;;;;;;12.45;72.49;100167.56;5069169;28;20488;-70
2023/03/31 01:02:14;;;;;;;8.60;2.28;;;;;;;12.50;72.79;100163.94;5063195;28;20036;-70
2023/03/31 01:04:45;;;;;;;9.40;2.30;;;;;;;12.51;72.45;100160.03;5071085;28;20036;-70
2023/03/31 01:07:33;;;;;;;8.20;2.20;;;;;;;12.55;72.51;100158.38;5082727;28;20023;-70
2023/03/31 01:10:01;;;;;;;9.23;2.40;;;;;;;12.48;72.82;100160.59;5065733;28;20037;-70
2023/03/31 01:12:26;;;;;;;8.00;2.00;;;;;;;12.48;72.45;100147.53;5062529;28;20576;-70
2023/03/31 01:14:52;;;;;;;5.45;1.70;;;;;;;12.42;73.04;100154.22;5051940;28;20116;-70
2023/03/31 01:17:21;;;;;;;10.45;2.15;;;;;;;12.50;72.59;100147.25;5065528;28;20033;-70
2023/03/31 01:20:13;;;;;;;6.95;2.20;;;;;;;12.49;72.77;100140.00;5055409;28;20017;-70
2023/03/31 01:22:58;;;;;;;7.40;1.92;;;;;;;12.42;73.22;100136.69;5068974;28;20036;-70
2023/03/31 01:26:00;;;;;;;8.20;1.88;;;;;;;12.50;72.74;100124.97;5066541;28;20130;-69
2023/03/31 01:28:36;;;;;;;7.25;2.08;;;;;;;12.46;73.37;100118.31;5068114;28;20142;-71
2023/03/31 01:31:37;;;;;;;9.25;2.35;;;;;;;12.48;73.40;100122.47;5056007;28;20024;-70
2023/03/31 01:34:12;;;;;;;9.75;2.20;;;;;;;12.36;73.58;100110.00;5042096;28;20044;-70
2023/03/31 01:37:15;;;;;;;11.52;2.47;;;;;;;12.35;73.64;100117.50;5070849;28;20476;-70
2023/03/31 01:40:04;;;;;;;11.38;2.65;;;;;;;12.36;73.88;100101.66;5071547;28;20044;-69
2023/03/31 01:42:44;;;;;;;13.25;2.30;;;;;;;12.25;74.47;100106.41;5059253;28;20041;-70
2023/03/31 01:45:15;;;;;;;8.85;2.75;;;;;;;12.22;74.93;100087.47;5068787;28;20113;-70
2023/03/31 01:48:17;;;;;;;12.43;2.93;;;;;;;12.14;75.11;100091.66;5071364;28;20028;-72
2023/03/31 01:50:56;;;;;;;10.75;2.88;;;;;;;12.20;74.94;100081.38;5090291;28;20031;-70
2023/03/31 01:53:46;;;;;;;12.57;2.50;;;;;;;12.27;74.83;100062.44;5092072;28;20471;-70
2023/03/31 01:56:21;;;;;;;12.50;3.13;;;;;;;12.24;75.08;100055.47;5071765;28;20150;-70
2023/03/31 01:58:55;;;;;;;12.57;2.80;;;;;;;12.29;74.83;100044.31;5060816;28;20021;-71
2023/03/31 02:01:44;;;;;;;11.20;2.60;;;;;;;12.23;74.06;100036.31;5059144;28;20660;-70
2023/03/31 02:04:17;;;;;;;12.18;2.50;;;;;;;12.22;74.71;100034.63;5069789;28;20074;-71
2023/03/31 02:06:51;;;;;;;10.38;3.42;;;;;;;12.25;74.49;100022.94;5092455;28;20109;-69
2023/03/31 02:09:21;;;;;;;10.48;2.50;;;;;;;12.28;74.19;100019.59;5060560;28;20029;-70
2023/03/31 02:11:48;;;;;;;9.98;2.47;;;;;;;12.24;74.50;100010.97;5051358;28;20068;-70
2023/03/31 02:14:20;;;;;;;8.98;2.55;;;;;;;12.29;74.54;99996.19;5051621;28;20055;-71
2023/03/31 02:16:51;;;;;;;9.18;2.40;;;;;;;12.25;74.44;99989.53;5061624;28;20036;-70
2023/03/31 02:19:19;;;;;;;7.18;2.25;;;;;;;12.28;75.04;99983.41;5067877;28;20043;-71
2023/03/31 02:21:49;;;;;;;9.88;2.63;;;;;;;12.22;75.09;99962.28;5071299;28;20031;-70
2023/03/31 02:24:18;;;;;;;10.40;3.08;;;;;;;12.22;75.10;99963.13;5058237;28;20144;-70
2023/03/31 02:27:17;;;;;;;7.88;2.53;;;;;;;12.29;74.76;99954.47;5050882;28;20021;-71
2023/03/31 02:29:43;;;;;;;10.20;2.70;;;;;;;12.26;75.28;99946.69;5066899;28;20130;-70
2023/03/31 02:32:28;;;;;;;14.70;3.50;;;;;;;12.30;75.12;99942.22;5068431;28;20130;-69
2023/03/31 02:34:54;;;;;;;13.07;2.92;;;;;;;12.34;75.17;99926.63;5073070;28;20475;-70
2023/03/31 02:37:20;;;;;;;7.68;2.35;;;;;;;12.30;75.62;99925.53;5073055;28;20024;-71
2023/03/31 02:39:48;;;;;;;9.27;2.42;;;;;;;12.25;75.61;99912.47;5070810;28;20486;-71
2023/03/31 02:42:14;;;;;;;12.02;3.40;;;;;;;12.28;75.41;99897.97;5071010;28;20071;-70
2023/03/31 02:44:40;;;;;;;11.05;2.72;;;;;;;12.24;76.32;99882.16;5069796;28;20082;-70
2023/03/31 02:47:10;;;;;;;12.25;2.67;;;;;;;12.22;76.16;99889.94;5053911;28;20040;-71
2023/03/31 02:49:39;;;;;;;11.63;3.38;;;;;;;12.21;76.07;99883.56;5050756;28;20056;-70
2023/03/31 02:52:28;;;;;;;12.82;3.20;;;;;;;12.21;75.97;99871.59;5075544;28;20020;-70
2023/03/31 02:55:01;;;;;;;11.73;3.20;;;;;;;12.19;76.31;99857.16;5065806;28;20108;-71
2023/03/31 02:57:45;;;;;;;12.32;3.25;;;;;;;12.21;75.73;99850.16;5070989;28;20032;-71
2023/03/31 03:00:34;;;;;;;12.57;3.10;;;;;;;12.22;75.71;99846.28;5068972;28;20028;-71
2023/03/31 03:03:28;;;;;;;9.02;3.00;;;;;;;12.17;76.16;99837.97;5051862;28;20393;-70
2023/03/31 03:06:01;;;;;;;11.50;2.58;;;;;;;12.17;75.71;99823.22;5062434;28;20516;-70
2023/03/31 03:08:36;;;;;;;15.57;3.38;;;;;;;12.20;75.97;99825.44;5071800;28;20487;-71
2023/03/31 03:11:24;;;;;;;9.95;2.70;;;;;;;12.19;76.09;99834.91;5067081;28;20048;-70
2023/03/31 03:14:13;;;;;;;10.30;3.05;;;;;;;12.23;75.72;99825.69;5070891;28;20127;-71
2023/03/31 03:16:44;;;;;;;11.77;3.20;;;;;;;12.22;75.62;99834.31;5070023;28;20066;-71
2023/03/31 03:19:16;;;;;;;14.27;3.08;;;;;;;12.18;76.28;99814.59;5070813;28;20103;-70
2023/03/31 03:21:42;;;;;;;;;;;;;;;12.36;74.69;99813.06;5058452;28;20755;-71
2023/03/31 03:24:08;;;;;;;9.68;2.90;;;;;;;12.22;75.55;99803.69;5090094;28;19920;-70
2023/03/31 03:26:34;;;;;;;11.70;3.05;;;;;;;12.19;75.96;99807.09;5061028;28;20040;-70
2023/03/31 03:28:59;;;;;;;13.65;3.10;;;;;;;12.14;75.75;99807.09;5066748;28;20024;-69
2023/03/31 03:31:24;;;;;;;12.88;3.30;;;;;;;12.10;76.22;99801.28;5059328;28;20077;-70
2023/03/31 03:33:50;;;;;;;10.00;2.80;;;;;;;12.13;76.44;99806.28;5067123;28;20089;-71
2023/03/31 03:36:16;;;;;;;7.95;2.35;;;;;;;12.11;76.19;99804.91;5054323;28;20025;-70
2023/03/31 03:38:42;;;;;;;11.77;2.67;;;;;;;12.02;76.13;99796.34;5071987;28;20028;-71
2023/03/31 03:41:07;;;;;;;10.57;2.75;;;;;;;11.96;76.82;99791.94;5063620;28;20594;-71
2023/03/31 03:43:33;;;;;;;14.23;2.90;;;;;;;11.97;76.58;99766.63;5059836;28;20082;-70
2023/03/31 03:45:58;;;;;;;12.88;3.05;;;;;;;11.97;76.42;99771.34;5058865;28;20060;-70
2023/03/31 03:48:23;;;;;;;11.55;2.85;;;;;;;12.01;76.52;99755.75;5069709;28;20043;-70
2023/03/31 03:50:49;;;;;;;12.82;2.95;;;;;;;11.97;76.18;99752.72;5069058;28;20028;-70
2023/03/31 03:53:15;;;;;;;10.50;2.60;;;;;;;11.92;76.49;99740.81;5076849;28;20479;-71
2023/03/31 03:55:40;;;;;;;10.25;2.33;;;;;;;11.93;76.47;99743.28;5067367;28;20036;-70
2023/03/31 03:58:06;;;;;;;10.32;2.22;;;;;;;11.96;76.21;99731.59;5068072;28;20024;-70
2023/03/31 04:00:32;;;;;;;8.60;2.53;;;;;;;11.92;76.44;99727.72;5055165;28;20033;-70
2023/03/31 04:02:57;;;;;;;13.70;2.30;;;;;;;11.94;76.33;99717.13;5055693;28;20110;-71
2023/03/31 04:05:23;;;;;;;8.68;2.22;;;;;;;11.94;76.31;99716.31;5051516;28;20045;-70
2023/03/31 04:07:48;;;;;;;8.90;2.20;;;;;;;11.93;76.08;99709.09;5084663;28;20101;-70
2023/03/31 04:10:13;;;;;;;12.10;2.63;;;;;;;11.87;76.47;99699.97;5082772;28;20085;-70
2023/03/31 04:12:39;;;;;;;8.38;2.20;;;;;;;11.85;76.23;99695.81;5056566;28;20061;-70
2023/03/31 04:15:05;;;;;;;12.00;2.42;;;;;;;11.88;76.29;99678.56;5069715;28;20022;-71
2023/03/31 04:17:35;;;;;;;12.38;2.50;;;;;;;11.83;76.46;99682.22;5067780;28;20820;-70
2023/03/31 04:20:06;;;;;;;8.98;2.30;;;;;;;11.90;76.62;99671.56;5063361;28;20730;-71
2023/03/31 04:22:39;;;;;;;7.32;2.03;;;;;;;11.85;76.56;99657.72;5069644;28;20123;-70
2023/03/31 04:25:09;;;;;;;10.13;2.35;;;;;;;11.88;76.57;99661.88;5069424;28;20116;-70
2023/03/31 04:27:35;;;;;;;8.80;2.45;;;;;;;11.86;76.75;99650.19;5068484;28;20029;-69
2023/03/31 04:30:00;;;;;;;8.70;2.20;;;;;;;11.86;76.20;99642.69;5049057;28;20040;-69
2023/03/31 04:32:27;;;;;;;8.43;2.38;;;;;;;11.85;76.54;99646.59;5067908;28;20028;-71
2023/03/31 04:35:01;;;;;;;11.07;2.03;;;;;;;11.91;76.42;99639.88;5067017;28;20031;-71
2023/03/31 04:37:33;;;;;;;9.27;2.50;;;;;;;11.88;76.52;99623.78;5061459;28;20039;-71
2023/03/31 04:40:07;;;;;;;9.30;2.47;;;;;;;11.88;75.29;99621.00;5092758;28;20026;-69
2023/03/31 04:42:32;;;;;;;7.60;2.40;;;;;;;11.85;74.93;99610.44;5093259;28;20027;-70
2023/03/31 04:44:58;;;;;;;7.30;2.22;;;;;;;11.85;75.55;99607.66;5093924;28;20039;-70
2023/03/31 04:47:23;;;;;;;8.18;2.30;;;;;;;11.88;75.31;99593.19;5090067;28;20108;-71
2023/03/31 04:49:48;;;;;;;6.22;1.92;;;;;;;11.88;75.24;99593.19;5054317;28;20793;-70
2023/03/31 04:52:14;;;;;;;8.35;2.10;;;;;;;11.86;75.60;99589.84;5058233;28;20438;-70
2023/03/31 04:54:39;;;;;;;7.03;2.00;;;;;;;11.86;75.52;99589.84;5071329;28;20029;-70
2023/03/31 04:57:05;;;;;;;7.43;1.92;;;;;;;11.86;75.59;99589.84;5054767;28;20025;-70
2023/03/31 04:59:30;;;;;;;7.25;2.08;;;;;;;11.80;75.96;99586.28;5052477;28;20172;-70
2023/03/31 05:01:56;;;;;;;5.78;1.70;;;;;;;11.84;75.98;99585.72;5065331;28;20039;-69
2023/03/31 05:04:21;;;;;;;9.40;2.10;;;;;;;11.83;75.83;99582.13;5056746;28;20039;-68
2023/03/31 05:06:46;;;;;;;8.00;1.90;;;;;;;11.85;75.21;99568.75;5052536;28;20025;-68
2023/03/31 05:09:12;;;;;;;8.52;2.03;;;;;;;11.84;75.63;99571.81;5052657;28;20795;-68
2023/03/31 05:11:37;;;;;;;8.15;1.70;;;;;;;11.82;75.18;99557.34;5052963;28;20491;-68
2023/03/31 05:14:03;;;;;;;8.73;1.90;;;;;;;11.74;75.20;99554.06;5052169;28;20362;-68
2023/03/31 05:16:28;;;;;;;4.95;1.58;;;;;;;11.70;75.68;99555.78;5059370;28;20028;-69
2023/03/31 05:18:53;;;;;;;8.13;1.92;;;;;;;11.65;75.76;99546.69;5062103;28;20426;-69
2023/03/31 05:21:20;;;;;;;7.80;1.98;;;;;;;11.67;75.58;99544.41;5071615;28;20024;-67
2023/03/31 05:23:47;;;;;;;7.93;1.90;;;;;;;11.67;76.10;99538.84;5066023;28;20028;-72
2023/03/31 05:26:13;;;;;;;10.23;2.25;;;;;;;11.65;76.04;99535.56;5066243;28;20379;-72
2023/03/31 05:28:38;;;;;;;6.43;2.08;;;;;;;11.66;75.39;99526.09;5067050;28;20032;-68
2023/03/31 05:31:06;;;;;;;4.47;1.65;;;;;;;11.66;76.07;99515.78;5071356;28;20021;-69
2023/03/31 05:33:31;;;;;;;6.05;1.80;;;;;;;11.64;76.14;99517.22;5081774;28;20498;-67
2023/03/31 05:35:59;;;;;;;7.05;1.85;;;;;;;11.63;76.04;99518.31;5069704;28;20028;-67
2023/03/31 05:38:27;;;;;;;7.75;1.98;;;;;;;11.60;75.96;99502.25;5071438;28;20439;-69
2023/03/31 05:40:52;;;;;;;7.00;2.28;;;;;;;11.56;76.26;99507.56;5070914;28;20056;-69
2023/03/31 05:43:18;;;;;;;8.15;2.20;;;;;;;11.55;76.03;99512.31;5068026;28;20455;-72
2023/03/31 05:45:43;;;;;;;7.28;2.40;;;;;;;11.54;76.28;99507.84;5063277;28;20623;-69
2023/03/31 05:48:09;;;;;;;9.75;2.28;;;;;;;11.57;76.00;99513.97;5072877;28;20425;-71
2023/03/31 05:50:34;;;;;;;6.85;1.85;;;;;;;11.54;76.34;99507.84;5067470;28;20078;-72
2023/03/31 05:53:03;;;;;;;7.40;1.95;;;;;;;11.54;76.45;99507.03;5064401;28;20059;-72
2023/03/31 05:55:28;;;;;;;8.65;2.15;;;;;;;11.54;76.43;99493.94;5068149;28;20024;-69
2023/03/31 05:57:56;;;;;;;6.72;1.80;;;;;;;11.59;76.56;99503.38;5069704;28;20051;-69
2023/03/31 06:00:27;;;;;;;5.00;1.90;;;;;;;11.62;76.21;99497.22;5069235;28;20024;-69
2023/03/31 06:02:52;;;;;;;6.93;1.92;;;;;;;11.54;76.67;99485.63;5056733;28;20037;-68
2023/03/31 06:05:17;;;;;;;6.40;2.20;;;;;;;11.55;76.87;99492.00;5066351;28;20032;-71
2023/03/31 06:07:42;;;;;;;6.50;1.73;;;;;;;11.53;76.79;99486.75;5076360;28;20058;-69
2023/03/31 06:10:09;;;;;;;6.65;2.10;;;;;;;11.57;77.05;99478.66;5065130;28;20037;-71
2023/03/31 06:12:35;;;;;;;4.75;2.00;;;;;;;11.59;76.70;99461.69;5050531;28;20083;-70
2023/03/31 06:15:00;;;;;;;5.32;2.20;;;;;;;11.60;76.85;99466.13;5051790;28;20099;-69
2023/03/31 06:17:26;;;;;;;5.65;2.22;;;;;;;11.60;77.20;99443.91;5071420;28;20027;-69
2023/03/31 06:19:51;;;;;;;6.65;1.70;;;;;;;11.57;76.30;99448.09;5056941;28;20029;-69
2023/03/31 06:22:17;;;;;;;5.93;1.90;;;;;;;11.61;76.51;99446.38;5067939;28;20028;-70
2023/03/31 06:24:42;;;;;;;7.70;2.13;;;;;;;11.60;76.51;99452.25;5069796;28;20040;-69
2023/03/31 06:27:10;;;;;;;8.05;2.53;;;;;;;11.50;76.95;99433.72;5068314;28;20040;-69
2023/03/31 06:29:36;;;;;;;6.80;2.08;;;;;;;11.51;76.86;99422.31;5070937;28;20024;-69
2023/03/31 06:32:03;;;;;;;7.50;2.20;;;;;;;11.51;77.40;99436.22;5064800;28;20535;-64
2023/03/31 06:34:29;;;;;;;6.65;2.08;;;;;;;11.50;77.76;99465.09;5072479;28;20498;-70
2023/03/31 06:36:54;;;;;;;5.90;2.10;;;;;;;11.52;77.86;99470.38;5070200;28;20032;-70
2023/03/31 06:39:19;;;;;;;6.10;2.13;;;;;;;11.55;77.67;99456.72;5066585;28;20032;-71
2023/03/31 06:41:45;;;;;;;7.30;2.15;;;;;;;11.57;77.72;99433.38;5075069;28;20059;-70
2023/03/31 06:44:10;;;;;;;4.85;1.58;;;;;;;11.60;77.52;99435.56;5075652;28;20128;-70
2023/03/31 06:46:36;;;;;;;7.82;2.22;;;;;;;11.62;77.30;99438.88;5064922;28;20028;-69
2023/03/31 06:49:01;;;;;;;5.03;1.88;;;;;;;11.63;77.47;99443.28;5059016;28;20127;-71
2023/03/31 06:51:26;;;;;;;5.63;1.80;;;;;;;11.62;77.69;99452.75;5068382;28;20093;-68
2023/03/31 06:53:52;;;;;;;6.65;2.10;;;;;;;11.62;77.91;99436.09;5049578;28;20110;-69
2023/03/31 06:56:17;;;;;;;4.35;2.08;;;;;;;11.66;77.39;99426.03;5057056;28;20056;-69
2023/03/31 06:58:42;;;;;;;8.95;1.98;;;;;;;11.67;77.36;99442.44;5050407;28;20044;-69
2023/03/31 07:01:09;;;;;;;9.30;2.40;;;;;;;11.66;77.95;99440.75;5052709;28;20036;-68
2023/03/31 07:03:35;;;;;;;7.28;2.80;;;;;;;11.67;78.09;99422.13;5069889;28;20024;-71
2023/03/31 07:06:00;;;;;;;9.30;3.10;;;;;;;11.67;78.17;99444.34;5081948;28;20123;-73
2023/03/31 07:08:25;;;;;;;10.70;2.80;;;;;;;11.66;78.40;99440.75;5076548;28;20028;-73
2023/03/31 07:10:56;;;;;;;10.50;2.53;;;;;;;11.69;78.42;99448.50;5068050;28;20361;-72
2023/03/31 07:13:22;;;;;;;10.88;2.47;;;;;;;11.70;78.43;99436.25;5065839;28;20962;-72
2023/03/31 07:15:49;;;;;;;12.95;3.17;;;;;;;11.69;78.57;99415.16;5057427;28;20663;-71
2023/03/31 07:18:15;;;;;;;12.88;3.42;;;;;;;11.67;78.98;99422.13;5073880;28;20034;-71
2023/03/31 07:20:42;;;;;;;6.80;2.38;;;;;;;11.73;78.12;99415.41;5068819;28;20025;-72
2023/03/31 07:23:08;;;;;;;9.57;2.50;;;;;;;11.76;78.04;99414.81;5068315;28;20032;-71
2023/03/31 07:25:34;;;;;;;9.80;2.40;;;;;;;11.74;78.31;99406.75;5087912;28;20038;-69
2023/03/31 07:28:00;;;;;;;9.30;2.47;;;;;;;11.73;77.76;99407.06;5083631;28;20036;-69
2023/03/31 07:30:26;;;;;;;8.25;2.35;;;;;;;11.72;77.54;99402.63;5068843;28;20027;-69
2023/03/31 07:32:53;;;;;;;9.25;2.20;;;;;;;11.70;77.88;99393.75;5062539;28;20078;-74
2023/03/31 07:35:19;;;;;;;7.68;2.20;;;;;;;11.74;77.21;99409.53;5063405;28;20035;-71
2023/03/31 07:37:46;;;;;;;7.72;1.85;;;;;;;11.69;77.06;99398.47;5062009;28;20112;-72
2023/03/31 07:40:22;;;;;;;7.10;1.88;;;;;;;11.76;77.16;99398.94;5060526;28;20024;-75
2023/03/31 07:42:48;;;;;;;8.48;1.80;;;;;;;11.70;77.21;99399.31;5059331;28;20052;-71
2023/03/31 07:45:15;;;;;;;7.82;1.80;;;;;;;11.74;77.31;99395.63;5066178;28;20028;-73
2023/03/31 07:47:41;;;;;;;10.82;2.42;;;;;;;11.71;77.63;99398.16;5065918;28;20032;-67
2023/03/31 07:50:07;;;;;;;9.65;2.45;;;;;;;11.71;77.88;99393.47;5053450;28;20033;-69
2023/03/31 07:52:33;;;;;;;9.70;2.30;;;;;;;11.75;77.71;99388.13;5065998;28;20036;-70
2023/03/31 07:54:58;;;;;;;10.43;2.17;;;;;;;11.76;77.68;99384.22;5069193;28;20480;-67
2023/03/31 07:57:23;;;;;;;8.07;2.38;;;;;;;11.75;77.93;99388.13;5062522;28;20049;-68
2023/03/31 07:59:49;;;;;;;10.63;2.30;;;;;;;11.76;78.28;99387.00;5070050;28;20035;-71
2023/03/31 08:02:16;;;;;;;11.02;2.92;;;;;;;11.78;78.64;99379.19;5083601;28;20521;-69
2023/03/31 08:04:42;;;;;;;15.05;3.40;;;;;;;11.80;78.81;99382.50;5066936;28;20498;-73
2023/03/31 08:07:12;;;;;;;12.00;2.72;;;;;;;11.83;78.38;99381.06;5077876;28;20115;-72
2023/03/31 08:09:43;;;;;;;15.75;3.47;;;;;;;11.83;79.11;99376.41;5088561;28;20821;-73
2023/03/31 08:12:08;;;;;;;8.47;3.70;;;;;;;11.86;79.13;99378.56;5070116;28;20500;-69
2023/03/31 08:14:34;;;;;;;16.13;3.50;;;;;;;11.90;79.02;99376.00;5063089;28;20063;-71
2023/03/31 08:16:59;;;;;;;16.52;3.47;;;;;;;11.93;78.97;99367.09;5072216;28;20016;-72
2023/03/31 08:19:26;;;;;;;15.85;3.50;;;;;;;11.91;79.30;99364.63;5069112;28;20115;-71
2023/03/31 08:21:51;;;;;;;16.88;3.70;;;;;;;11.91;79.22;99364.63;5068429;28;20463;-72
2023/03/31 08:24:17;;;;;;;13.05;3.35;;;;;;;11.94;79.36;99365.94;5061853;28;20090;-72
2023/03/31 08:26:43;;;;;;;9.88;3.33;;;;;;;11.94;79.42;99368.72;5052855;28;20082;-71
2023/03/31 08:29:09;;;;;;;9.55;3.45;;;;;;;11.98;79.45;99365.03;5068787;28;20029;-72
2023/03/31 08:31:34;;;;;;;16.02;4.30;;;;;;;12.02;79.86;99359.72;5066020;28;20028;-71
2023/03/31 08:34:01;;;;;;;17.23;3.85;;;;;;;12.08;79.16;99371.63;5066372;28;20020;-71
2023/03/31 08:36:27;;;;;;;14.80;3.60;;;;;;;12.06;79.47;99366.34;5068176;28;20365;-71
2023/03/31 08:38:53;;;;;;;14.65;3.95;;;;;;;12.07;79.27;99350.50;5067984;28;20032;-71
2023/03/31 08:41:33;;;;;;;13.65;4.18;;;;;;;12.06;79.60;99366.34;5067370;28;20446;-73
2023/03/31 08:44:03;;;;;;;17.30;4.05;;;;;;;12.02;79.39;99368.06;5049470;28;20040;-75
2023/03/31 08:46:40;;;;;;;13.25;3.83;;;;;;;12.07;79.60;99364.41;5060189;28;20032;-72
2023/03/31 08:49:08;;;;;;;19.98;3.90;;;;;;;12.06;78.63;99371.06;5067932;28;20029;-71
2023/03/31 08:51:41;;;;;;;16.40;3.67;;;;;;;12.12;78.43;99361.53;5068354;28;20024;-68
2023/03/31 08:54:24;;;;;;;20.70;4.20;;;;;;;12.15;79.07;99350.66;5065943;28;20567;-71
2023/03/31 08:56:54;;;;;;;18.10;3.85;;;;;;;12.19;78.48;99360.03;5054438;28;20036;-73
2023/03/31 08:59:32;;;;;;;18.00;3.90;;;;;;;12.20;78.01;99344.19;5067717;28;20051;-72
2023/03/31 09:02:24;;;;;;;20.55;3.85;;;;;;;12.23;78.28;99357.50;5050499;28;20048;-71
2023/03/31 09:04:56;;;;;;;18.15;4.55;;;;;;;12.24;77.86;99357.19;5051336;28;20036;-71
2023/03/31 09:07:50;;;;;;;19.27;4.50;;;;;;;12.27;77.07;99351.03;5048169;28;20760;-72
2023/03/31 09:10:27;;;;;;;18.85;4.70;;;;;;;12.31;77.48;99339.28;5063411;28;20037;-71
2023/03/31 09:13:16;;;;;;;17.05;3.83;;;;;;;12.38;77.45;99339.72;5061950;28;20052;-71
2023/03/31 09:16:00;;;;;;;19.50;4.45;;;;;;;12.42;76.95;99347.19;5065012;28;20031;-71
2023/03/31 09:18:36;;;;;;;18.33;4.03;;;;;;;12.40;76.33;99346.66;5062343;28;20768;-70
2023/03/31 09:21:32;;;;;;;13.57;3.08;;;;;;;12.43;76.27;99337.69;5060774;28;20044;-73
2023/03/31 09:24:06;;;;;;;16.48;3.92;;;;;;;12.41;75.98;99339.13;5067689;28;20036;-72
2023/03/31 09:26:44;;;;;;;16.55;3.47;;;;;;;12.45;75.99;99335.44;5057985;28;20036;-71
2023/03/31 09:29:17;;;;;;;15.73;3.95;;;;;;;12.44;74.66;99324.63;5071338;28;20054;-71
2023/03/31 09:31:44;;;;;;;16.33;3.75;;;;;;;12.48;74.66;99331.22;5091566;28;20038;-70
2023/03/31 09:34:16;;;;;;;14.30;3.20;;;;;;;12.46;74.82;99322.38;5091206;28;20032;-71
2023/03/31 09:36:42;;;;;;;15.18;3.55;;;;;;;12.46;73.68;99314.84;5058150;28;20025;-63
2023/03/31 09:39:11;;;;;;;14.02;3.60;;;;;;;12.49;74.14;99319.78;5062613;28;20039;-64
2023/03/31 09:41:38;;;;;;;16.15;3.72;;;;;;;12.53;73.65;99318.03;5051718;28;20037;-67
2023/03/31 09:44:21;;;;;;;11.32;2.72;;;;;;;12.64;74.04;99312.31;5060247;28;20036;-68
2023/03/31 09:46:47;;;;;;;12.07;3.38;;;;;;;12.64;73.46;99317.88;5063276;28;20036;-69
2023/03/31 09:49:26;;;;;;;13.45;3.40;;;;;;;12.70;74.33;99320.28;5068698;28;20521;-68
2023/03/31 09:52:11;;;;;;;15.32;3.67;;;;;;;12.75;73.86;99308.22;5067721;28;20116;-69
2023/03/31 09:54:43;;;;;;;14.85;3.08;;;;;;;12.75;73.73;99311.00;5067762;28;20040;-68
2023/03/31 09:57:22;;;;;;;;;;;;;;;12.88;73.87;99312.16;5085044;28;20043;-68
2023/03/31 10:00:00;;;;;;;12.52;3.17;;;;;;;12.84;73.00;99305.56;5066233;28;19959;-64
2023/03/31 10:02:34;;;;;;;15.98;3.17;;;;;;;12.85;72.41;99308.06;5069914;28;20118;-64
2023/03/31 10:04:59;;;;;;;15.20;3.42;;;;;;;12.84;71.34;99306.38;5067662;28;20032;-64
2023/03/31 10:07:25;;;;;;;12.80;3.25;;;;;;;12.85;71.65;99299.69;5075800;28;20024;-65
2023/03/31 10:09:53;;;;;;;14.18;2.90;;;;;;;12.80;70.36;99299.78;5090493;28;20024;-69
2023/03/31 10:12:23;;;;;;;11.80;3.10;;;;;;;12.77;71.24;99292.03;5060730;28;20051;-69
2023/03/31 10:14:50;;;;;;;14.60;3.22;;;;;;;12.78;71.45;99294.53;5076554;28;20502;-71
2023/03/31 10:17:18;;;;;;;10.00;2.88;;;;;;;12.75;70.91;99285.94;5067889;28;20033;-70
2023/03/31 10:19:58;;;;;;;10.85;2.88;;;;;;;12.74;70.24;99298.22;5071281;28;20070;-69
2023/03/31 10:22:29;;;;;;;14.88;2.75;;;;;;;12.74;70.52;99298.22;5065252;28;20069;-69
2023/03/31 10:25:09;;;;;;;11.63;2.85;;;;;;;12.75;70.79;99291.53;5060490;28;20028;-69
2023/03/31 10:27:37;;;;;;;10.05;2.80;;;;;;;12.76;70.25;99287.59;5062626;28;20098;-69
2023/03/31 10:30:08;;;;;;;9.88;3.00;;;;;;;12.77;70.06;99286.47;5059353;28;20036;-69
2023/03/31 10:32:40;;;;;;;12.30;3.20;;;;;;;12.69;70.10;99276.03;5074565;28;20460;-69
2023/03/31 10:35:13;;;;;;;10.88;2.78;;;;;;;12.68;70.52;99271.59;5070208;28;20032;-69
2023/03/31 10:37:39;;;;;;;12.38;3.08;;;;;;;12.61;70.84;99279.50;5078503;28;20097;-65
2023/03/31 10:40:14;;;;;;;13.32;3.00;;;;;;;12.59;71.04;99276.22;5083212;28;20028;-68
2023/03/31 10:42:46;;;;;;;9.25;2.65;;;;;;;12.57;70.57;99272.91;5086558;28;20395;-68
2023/03/31 10:45:43;;;;;;;12.38;2.78;;;;;;;12.64;70.78;99274.16;5066618;28;20496;-69
2023/03/31 10:48:18;;;;;;;15.70;3.13;;;;;;;12.65;71.44;99275.00;5073903;28;20044;-69
2023/03/31 10:50:43;;;;;;;12.55;2.95;;;;;;;12.68;70.98;99258.50;5068636;28;20029;-71
2023/03/31 10:53:13;;;;;;;14.20;2.95;;;;;;;12.64;70.19;99253.84;5065916;28;20032;-70
2023/03/31 10:56:04;;;;;;;16.27;3.38;;;;;;;12.71;71.18;99262.66;5064812;28;20120;-69
2023/03/31 10:58:44;;;;;;;16.30;3.22;;;;;;;12.75;70.32;99258.94;5061412;28;20050;-69
2023/03/31 11:01:28;;;;;;;12.32;2.95;;;;;;;12.78;70.87;99257.50;5061710;28;20111;-68
2023/03/31 11:03:56;;;;;;;12.43;2.97;;;;;;;12.77;70.38;99255.84;5062136;28;20075;-65
2023/03/31 11:06:25;;;;;;;14.48;3.38;;;;;;;12.77;70.66;99255.84;5074199;28;20519;-65
2023/03/31 11:09:13;;;;;;;13.80;3.65;;;;;;;12.75;71.09;99252.53;5049950;28;20116;-65
2023/03/31 11:11:55;;;;;;;11.82;3.15;;;;;;;12.74;71.13;99257.28;5058755;28;20078;-69
2023/03/31 11:14:46;;;;;;;13.85;3.00;;;;;;;12.74;71.29;99267.59;5075841;28;20170;-71
2023/03/31 11:17:30;;;;;;;15.02;3.33;;;;;;;12.65;71.10;99258.28;5055436;28;20028;-70
2023/03/31 11:20:11;;;;;;;15.98;3.55;;;;;;;12.72;72.30;99242.00;5072215;28;20039;-68
2023/03/31 11:22:47;;;;;;;11.77;2.63;;;;;;;12.76;72.94;99249.44;5060103;28;20449;-65
2023/03/31 11:25:25;;;;;;;15.30;3.70;;;;;;;12.83;72.16;99231.53;5068999;28;20115;-62
2023/03/31 11:28:23;;;;;;;17.02;3.95;;;;;;;12.89;71.74;99235.84;5055054;28;20034;-60
2023/03/31 11:31:05;;;;;;;15.68;3.40;;;;;;;12.90;71.92;99221.63;5056151;28;20037;-62
2023/03/31 11:33:58;;;;;;;12.25;3.50;;;;;;;12.95;70.68;99221.53;5062311;28;20020;-62
2023/03/31 11:36:35;;;;;;;17.90;3.65;;;;;;;12.95;69.82;99234.63;5070017;28;20036;-65
2023/03/31 11:39:13;;;;;;;12.60;2.97;;;;;;;12.97;69.68;99222.06;5067543;28;20032;-63
2023/03/31 11:41:44;;;;;;;15.18;3.72;;;;;;;12.99;69.24;99213.38;5068873;28;20436;-64
2023/03/31 11:44:15;;;;;;;11.68;3.42;;;;;;;12.96;68.54;99225.94;5066576;28;20037;-64
2023/03/31 11:46:48;;;;;;;13.32;3.67;;;;;;;12.95;68.10;99206.78;5067272;28;20040;-65